sensor_id;sensor_type;location;lat;lon;timestamp;P1;durP1;ratioP1;P2;durP2;ratioP2
39266;SDS011;24967;51.154;13.812;2022-08-03T00:02:28;2.40;;;2.30;;
39266;SDS011;24967;51.154;13.812;2022-08-03T00:04:58;2.60;;;2.50;;
39266;SDS011;24967;51.154;13.812;2022-08-03T00:07:25;2.60;;;2.40;;
39266;SDS011;24967;51.154;13.812;2022-08-03T00:09:52;2.60;;;2.50;;
39266;SDS011;24967;51.154;13.812;2022-08-03T00:12:23;2.75;;;2.58;;
39266;SDS011;24967;51.154;13.812;2022-08-03T00:14:53;2.75;;;2.55;;
39266;SDS011;24967;51.154;13.812;2022-08-03T00:17:21;2.75;;;2.60;;
39266;SDS011;24967;51.154;13.812;2022-08-03T00:19:53;2.40;;;2.20;;
39266;SDS011;24967;51.154;13.812;2022-08-03T00:22:20;2.60;;;2.40;;
39266;SDS011;24967;51.154;13.812;2022-08-03T00:24:50;2.70;;;2.60;;
39266;SDS011;24967;51.154;13.812;2022-08-03T00:27:18;5.50;;;2.28;;
39266;SDS011;24967;51.154;13.812;2022-08-03T00:29:48;3.08;;;2.88;;
39266;SDS011;24967;51.154;13.812;2022-08-03T00:32:14;2.28;;;2.17;;
39266;SDS011;24967;51.154;13.812;2022-08-03T00:34:41;2.25;;;2.15;;
39266;SDS011;24967;51.154;13.812;2022-08-03T00:37:10;2.25;;;2.15;;
39266;SDS011;24967;51.154;13.812;2022-08-03T00:39:37;3.00;;;2.78;;
39266;SDS011;24967;51.154;13.812;2022-08-03T00:42:05;4.45;;;2.50;;
39266;SDS011;24967;51.154;13.812;2022-08-03T00:44:37;3.45;;;2.70;;
39266;SDS011;24967;51.154;13.812;2022-08-03T00:47:04;3.30;;;2.90;;
39266;SDS011;24967;51.154;13.812;2022-08-03T00:49:31;2.75;;;2.55;;
39266;SDS011;24967;51.154;13.812;2022-08-03T00:51:57;2.50;;;2.30;;
39266;SDS011;24967;51.154;13.812;2022-08-03T00:54:27;2.70;;;2.55;;
39266;SDS011;24967;51.154;13.812;2022-08-03T00:56:53;4.05;;;2.33;;
39266;SDS011;24967;51.154;13.812;2022-08-03T00:59:24;3.15;;;2.95;;
39266;SDS011;24967;51.154;13.812;2022-08-03T01:02:01;2.35;;;2.25;;
39266;SDS011;24967;51.154;13.812;2022-08-03T01:04:27;3.20;;;2.60;;
39266;SDS011;24967;51.154;13.812;2022-08-03T01:06:56;3.10;;;2.90;;
39266;SDS011;24967;51.154;13.812;2022-08-03T01:09:35;2.60;;;2.50;;
39266;SDS011;24967;51.154;13.812;2022-08-03T01:12:07;2.70;;;2.47;;
39266;SDS011;24967;51.154;13.812;2022-08-03T01:14:40;3.58;;;2.40;;
39266;SDS011;24967;51.154;13.812;2022-08-03T01:17:12;2.40;;;2.22;;
39266;SDS011;24967;51.154;13.812;2022-08-03T01:19:48;3.30;;;2.50;;
39266;SDS011;24967;51.154;13.812;2022-08-03T01:22:27;2.90;;;2.80;;
39266;SDS011;24967;51.154;13.812;2022-08-03T01:25:09;2.83;;;2.72;;
39266;SDS011;24967;51.154;13.812;2022-08-03T01:27:50;3.90;;;2.90;;
39266;SDS011;24967;51.154;13.812;2022-08-03T01:30:24;4.30;;;3.05;;
39266;SDS011;24967;51.154;13.812;2022-08-03T01:32:55;2.47;;;2.38;;
39266;SDS011;24967;51.154;13.812;2022-08-03T01:35:27;2.70;;;2.60;;
39266;SDS011;24967;51.154;13.812;2022-08-03T01:37:59;2.40;;;2.30;;
39266;SDS011;24967;51.154;13.812;2022-08-03T01:40:29;3.47;;;2.88;;
39266;SDS011;24967;51.154;13.812;2022-08-03T01:43:01;2.47;;;2.27;;
39266;SDS011;24967;51.154;13.812;2022-08-03T01:45:30;2.53;;;2.42;;
39266;SDS011;24967;51.154;13.812;2022-08-03T01:47:58;2.75;;;2.55;;
39266;SDS011;24967;51.154;13.812;2022-08-03T01:50:27;3.15;;;2.95;;
39266;SDS011;24967;51.154;13.812;2022-08-03T01:52:55;2.90;;;2.70;;
39266;SDS011;24967;51.154;13.812;2022-08-03T01:55:24;2.60;;;2.40;;
39266;SDS011;24967;51.154;13.812;2022-08-03T01:57:52;3.33;;;3.03;;
39266;SDS011;24967;51.154;13.812;2022-08-03T02:00:20;3.35;;;3.15;;
39266;SDS011;24967;51.154;13.812;2022-08-03T02:02:50;3.55;;;2.80;;
39266;SDS011;24967;51.154;13.812;2022-08-03T02:05:19;4.90;;;2.72;;
39266;SDS011;24967;51.154;13.812;2022-08-03T02:07:46;3.40;;;3.10;;
39266;SDS011;24967;51.154;13.812;2022-08-03T02:10:14;5.35;;;2.92;;
39266;SDS011;24967;51.154;13.812;2022-08-03T02:12:45;3.58;;;3.28;;
39266;SDS011;24967;51.154;13.812;2022-08-03T02:15:14;3.13;;;2.83;;
39266;SDS011;24967;51.154;13.812;2022-08-03T02:17:44;3.30;;;3.00;;
39266;SDS011;24967;51.154;13.812;2022-08-03T02:20:13;4.80;;;3.88;;
39266;SDS011;24967;51.154;13.812;2022-08-03T02:22:41;3.00;;;2.80;;
39266;SDS011;24967;51.154;13.812;2022-08-03T02:25:10;3.72;;;3.42;;
39266;SDS011;24967;51.154;13.812;2022-08-03T02:27:38;3.47;;;3.17;;
39266;SDS011;24967;51.154;13.812;2022-08-03T02:32:36;3.58;;;3.38;;
39266;SDS011;24967;51.154;13.812;2022-08-03T02:35:06;4.93;;;3.72;;
39266;SDS011;24967;51.154;13.812;2022-08-03T02:37:40;3.80;;;3.53;;
39266;SDS011;24967;51.154;13.812;2022-08-03T02:40:08;3.88;;;3.67;;
39266;SDS011;24967;51.154;13.812;2022-08-03T02:42:37;4.05;;;3.60;;
39266;SDS011;24967;51.154;13.812;2022-08-03T02:45:05;3.42;;;3.22;;
39266;SDS011;24967;51.154;13.812;2022-08-03T02:47:36;4.07;;;3.17;;
39266;SDS011;24967;51.154;13.812;2022-08-03T02:50:05;3.42;;;3.22;;
39266;SDS011;24967;51.154;13.812;2022-08-03T02:52:34;4.00;;;3.33;;
39266;SDS011;24967;51.154;13.812;2022-08-03T02:55:04;3.90;;;3.60;;
39266;SDS011;24967;51.154;13.812;2022-08-03T02:57:34;3.45;;;3.13;;
39266;SDS011;24967;51.154;13.812;2022-08-03T03:00:02;4.78;;;3.78;;
39266;SDS011;24967;51.154;13.812;2022-08-03T03:02:30;3.63;;;3.33;;
39266;SDS011;24967;51.154;13.812;2022-08-03T03:04:57;3.55;;;3.25;;
39266;SDS011;24967;51.154;13.812;2022-08-03T03:07:26;3.50;;;3.20;;
39266;SDS011;24967;51.154;13.812;2022-08-03T03:09:53;3.53;;;3.33;;
39266;SDS011;24967;51.154;13.812;2022-08-03T03:12:22;3.67;;;3.40;;
39266;SDS011;24967;51.154;13.812;2022-08-03T03:14:49;4.53;;;4.10;;
39266;SDS011;24967;51.154;13.812;2022-08-03T03:17:16;4.13;;;3.83;;
39266;SDS011;24967;51.154;13.812;2022-08-03T03:19:44;4.00;;;3.70;;
39266;SDS011;24967;51.154;13.812;2022-08-03T03:22:12;4.07;;;3.78;;
39266;SDS011;24967;51.154;13.812;2022-08-03T03:24:40;3.92;;;3.58;;
39266;SDS011;24967;51.154;13.812;2022-08-03T03:27:07;4.20;;;3.90;;
39266;SDS011;24967;51.154;13.812;2022-08-03T03:29:35;4.72;;;4.32;;
39266;SDS011;24967;51.154;13.812;2022-08-03T03:32:02;4.43;;;3.80;;
39266;SDS011;24967;51.154;13.812;2022-08-03T03:34:30;4.00;;;3.70;;
39266;SDS011;24967;51.154;13.812;2022-08-03T03:36:57;4.97;;;4.13;;
39266;SDS011;24967;51.154;13.812;2022-08-03T03:39:24;5.13;;;4.60;;
39266;SDS011;24967;51.154;13.812;2022-08-03T03:41:50;4.18;;;3.97;;
39266;SDS011;24967;51.154;13.812;2022-08-03T03:44:17;4.63;;;4.22;;
39266;SDS011;24967;51.154;13.812;2022-08-03T03:46:46;4.70;;;4.32;;
39266;SDS011;24967;51.154;13.812;2022-08-03T03:49:13;4.10;;;3.80;;
39266;SDS011;24967;51.154;13.812;2022-08-03T03:51:39;4.45;;;4.07;;
39266;SDS011;24967;51.154;13.812;2022-08-03T03:54:06;4.60;;;4.20;;
39266;SDS011;24967;51.154;13.812;2022-08-03T03:56:32;4.60;;;4.28;;
39266;SDS011;24967;51.154;13.812;2022-08-03T03:58:59;5.07;;;4.57;;
39266;SDS011;24967;51.154;13.812;2022-08-03T04:01:25;8.10;;;5.03;;
39266;SDS011;24967;51.154;13.812;2022-08-03T04:03:53;4.85;;;4.45;;
39266;SDS011;24967;51.154;13.812;2022-08-03T04:06:20;5.07;;;4.68;;
39266;SDS011;24967;51.154;13.812;2022-08-03T04:09:04;5.00;;;4.45;;
39266;SDS011;24967;51.154;13.812;2022-08-03T04:11:50;4.57;;;4.18;;
39266;SDS011;24967;51.154;13.812;2022-08-03T04:14:19;4.82;;;4.53;;
39266;SDS011;24967;51.154;13.812;2022-08-03T04:16:51;4.90;;;4.50;;
39266;SDS011;24967;51.154;13.812;2022-08-03T04:21:52;6.78;;;4.90;;
39266;SDS011;24967;51.154;13.812;2022-08-03T04:24:22;8.70;;;4.30;;
39266;SDS011;24967;51.154;13.812;2022-08-03T04:26:55;5.97;;;4.38;;
39266;SDS011;24967;51.154;13.812;2022-08-03T04:29:24;5.28;;;4.50;;
39266;SDS011;24967;51.154;13.812;2022-08-03T04:31:51;6.25;;;4.45;;
39266;SDS011;24967;51.154;13.812;2022-08-03T04:34:19;7.18;;;4.55;;
39266;SDS011;24967;51.154;13.812;2022-08-03T04:36:48;11.93;;;4.68;;
39266;SDS011;24967;51.154;13.812;2022-08-03T04:39:22;18.30;;;5.15;;
39266;SDS011;24967;51.154;13.812;2022-08-03T04:41:50;4.85;;;4.38;;
39266;SDS011;24967;51.154;13.812;2022-08-03T04:44:19;5.70;;;4.53;;
39266;SDS011;24967;51.154;13.812;2022-08-03T04:46:48;9.18;;;4.70;;
39266;SDS011;24967;51.154;13.812;2022-08-03T04:49:16;11.20;;;4.57;;
39266;SDS011;24967;51.154;13.812;2022-08-03T04:51:45;8.55;;;4.55;;
39266;SDS011;24967;51.154;13.812;2022-08-03T04:54:14;5.07;;;4.68;;
39266;SDS011;24967;51.154;13.812;2022-08-03T04:56:41;7.70;;;5.03;;
39266;SDS011;24967;51.154;13.812;2022-08-03T04:59:08;7.70;;;4.90;;
39266;SDS011;24967;51.154;13.812;2022-08-03T05:01:35;5.20;;;4.88;;
39266;SDS011;24967;51.154;13.812;2022-08-03T05:04:02;6.90;;;5.03;;
39266;SDS011;24967;51.154;13.812;2022-08-03T05:06:28;4.97;;;4.57;;
39266;SDS011;24967;51.154;13.812;2022-08-03T05:08:55;6.32;;;4.53;;
39266;SDS011;24967;51.154;13.812;2022-08-03T05:11:23;5.82;;;4.93;;
39266;SDS011;24967;51.154;13.812;2022-08-03T05:13:49;8.90;;;5.05;;
39266;SDS011;24967;51.154;13.812;2022-08-03T05:16:16;5.40;;;4.70;;
39266;SDS011;24967;51.154;13.812;2022-08-03T05:18:46;7.53;;;5.15;;
39266;SDS011;24967;51.154;13.812;2022-08-03T05:21:12;4.57;;;3.95;;
39266;SDS011;24967;51.154;13.812;2022-08-03T05:23:40;5.60;;;4.15;;
39266;SDS011;24967;51.154;13.812;2022-08-03T05:26:07;5.82;;;4.75;;
39266;SDS011;24967;51.154;13.812;2022-08-03T05:28:37;6.13;;;4.00;;
39266;SDS011;24967;51.154;13.812;2022-08-03T05:31:03;4.85;;;4.13;;
39266;SDS011;24967;51.154;13.812;2022-08-03T05:33:30;4.88;;;3.90;;
39266;SDS011;24967;51.154;13.812;2022-08-03T05:35:56;6.50;;;3.80;;
39266;SDS011;24967;51.154;13.812;2022-08-03T05:38:23;5.70;;;3.88;;
39266;SDS011;24967;51.154;13.812;2022-08-03T05:40:50;7.07;;;3.55;;
39266;SDS011;24967;51.154;13.812;2022-08-03T05:43:18;3.90;;;3.55;;
39266;SDS011;24967;51.154;13.812;2022-08-03T05:45:47;3.72;;;3.22;;
39266;SDS011;24967;51.154;13.812;2022-08-03T05:48:13;3.38;;;3.08;;
39266;SDS011;24967;51.154;13.812;2022-08-03T05:50:40;5.18;;;3.47;;
39266;SDS011;24967;51.154;13.812;2022-08-03T05:53:06;3.40;;;3.10;;
39266;SDS011;24967;51.154;13.812;2022-08-03T05:55:33;3.25;;;2.70;;
39266;SDS011;24967;51.154;13.812;2022-08-03T05:57:59;2.45;;;2.35;;
39266;SDS011;24967;51.154;13.812;2022-08-03T06:00:35;2.47;;;2.38;;
39266;SDS011;24967;51.154;13.812;2022-08-03T06:09:10;2.17;;;2.08;;
39266;SDS011;24967;51.154;13.812;2022-08-03T06:11:39;2.45;;;2.28;;
39266;SDS011;24967;51.154;13.812;2022-08-03T06:14:06;1.90;;;1.80;;
39266;SDS011;24967;51.154;13.812;2022-08-03T06:16:32;1.88;;;1.77;;
39266;SDS011;24967;51.154;13.812;2022-08-03T06:18:59;2.58;;;1.80;;
39266;SDS011;24967;51.154;13.812;2022-08-03T06:21:25;1.70;;;1.70;;
39266;SDS011;24967;51.154;13.812;2022-08-03T06:23:53;2.20;;;1.80;;
39266;SDS011;24967;51.154;13.812;2022-08-03T06:26:26;2.10;;;1.60;;
39266;SDS011;24967;51.154;13.812;2022-08-03T06:28:58;3.10;;;1.80;;
39266;SDS011;24967;51.154;13.812;2022-08-03T06:31:28;4.05;;;1.98;;
39266;SDS011;24967;51.154;13.812;2022-08-03T06:33:57;1.90;;;1.80;;
39266;SDS011;24967;51.154;13.812;2022-08-03T06:36:24;2.05;;;1.95;;
39266;SDS011;24967;51.154;13.812;2022-08-03T06:38:56;2.95;;;1.73;;
39266;SDS011;24967;51.154;13.812;2022-08-03T06:41:36;1.98;;;1.85;;
39266;SDS011;24967;51.154;13.812;2022-08-03T06:44:28;3.03;;;1.98;;
39266;SDS011;24967;51.154;13.812;2022-08-03T06:47:07;2.30;;;1.70;;
39266;SDS011;24967;51.154;13.812;2022-08-03T06:49:54;3.72;;;1.80;;
39266;SDS011;24967;51.154;13.812;2022-08-03T06:52:33;2.22;;;2.03;;
39266;SDS011;24967;51.154;13.812;2022-08-03T06:55:01;2.00;;;1.90;;
39266;SDS011;24967;51.154;13.812;2022-08-03T06:57:35;3.33;;;1.98;;
39266;SDS011;24967;51.154;13.812;2022-08-03T07:00:39;2.10;;;2.00;;
39266;SDS011;24967;51.154;13.812;2022-08-03T07:03:05;1.50;;;1.40;;
39266;SDS011;24967;51.154;13.812;2022-08-03T07:05:40;1.70;;;1.60;;
39266;SDS011;24967;51.154;13.812;2022-08-03T07:08:10;1.83;;;1.70;;
39266;SDS011;24967;51.154;13.812;2022-08-03T07:10:38;2.22;;;2.03;;
39266;SDS011;24967;51.154;13.812;2022-08-03T07:13:05;1.60;;;1.50;;
39266;SDS011;24967;51.154;13.812;2022-08-03T07:15:38;1.92;;;1.77;;
39266;SDS011;24967;51.154;13.812;2022-08-03T07:18:05;2.53;;;1.50;;
39266;SDS011;24967;51.154;13.812;2022-08-03T07:20:33;2.05;;;1.60;;
39266;SDS011;24967;51.154;13.812;2022-08-03T07:23:00;1.80;;;1.70;;
39266;SDS011;24967;51.154;13.812;2022-08-03T07:25:26;2.83;;;1.70;;
39266;SDS011;24967;51.154;13.812;2022-08-03T07:27:54;1.80;;;1.70;;
39266;SDS011;24967;51.154;13.812;2022-08-03T07:30:21;1.80;;;1.70;;
39266;SDS011;24967;51.154;13.812;2022-08-03T07:32:48;1.83;;;1.73;;
39266;SDS011;24967;51.154;13.812;2022-08-03T07:35:15;4.32;;;1.88;;
39266;SDS011;24967;51.154;13.812;2022-08-03T07:37:41;6.45;;;1.88;;
39266;SDS011;24967;51.154;13.812;2022-08-03T07:40:08;1.90;;;1.80;;
39266;SDS011;24967;51.154;13.812;2022-08-03T07:42:35;3.15;;;1.77;;
39266;SDS011;24967;51.154;13.812;2022-08-03T07:45:03;2.45;;;1.50;;
39266;SDS011;24967;51.154;13.812;2022-08-03T07:47:56;3.92;;;1.63;;
39266;SDS011;24967;51.154;13.812;2022-08-03T07:51:29;1.77;;;1.67;;
39266;SDS011;24967;51.154;13.812;2022-08-03T07:54:49;1.38;;;1.38;;
39266;SDS011;24967;51.154;13.812;2022-08-03T07:57:24;2.45;;;1.45;;
39266;SDS011;24967;51.154;13.812;2022-08-03T07:59:57;2.08;;;1.98;;
39266;SDS011;24967;51.154;13.812;2022-08-03T08:02:43;1.73;;;1.63;;
39266;SDS011;24967;51.154;13.812;2022-08-03T08:05:11;2.47;;;1.50;;
39266;SDS011;24967;51.154;13.812;2022-08-03T08:07:37;2.33;;;1.67;;
39266;SDS011;24967;51.154;13.812;2022-08-03T08:10:05;1.67;;;1.58;;
39266;SDS011;24967;51.154;13.812;2022-08-03T08:12:33;1.45;;;1.45;;
39266;SDS011;24967;51.154;13.812;2022-08-03T08:15:00;1.70;;;1.60;;
39266;SDS011;24967;51.154;13.812;2022-08-03T08:17:28;1.92;;;1.70;;
39266;SDS011;24967;51.154;13.812;2022-08-03T08:19:56;1.48;;;1.38;;
39266;SDS011;24967;51.154;13.812;2022-08-03T08:22:22;1.65;;;1.42;;
39266;SDS011;24967;51.154;13.812;2022-08-03T08:24:49;2.40;;;1.65;;
39266;SDS011;24967;51.154;13.812;2022-08-03T08:27:15;2.97;;;1.35;;
39266;SDS011;24967;51.154;13.812;2022-08-03T08:29:42;1.92;;;1.45;;
39266;SDS011;24967;51.154;13.812;2022-08-03T08:32:08;1.50;;;1.40;;
39266;SDS011;24967;51.154;13.812;2022-08-03T08:34:37;1.30;;;1.20;;
39266;SDS011;24967;51.154;13.812;2022-08-03T08:37:04;1.65;;;1.30;;
39266;SDS011;24967;51.154;13.812;2022-08-03T08:39:47;2.05;;;1.38;;
39266;SDS011;24967;51.154;13.812;2022-08-03T08:42:34;2.25;;;1.27;;
39266;SDS011;24967;51.154;13.812;2022-08-03T08:45:07;3.67;;;1.30;;
39266;SDS011;24967;51.154;13.812;2022-08-03T08:47:36;1.58;;;1.23;;
39266;SDS011;24967;51.154;13.812;2022-08-03T08:50:09;2.05;;;1.38;;
39266;SDS011;24967;51.154;13.812;2022-08-03T08:56:00;1.38;;;1.27;;
39266;SDS011;24967;51.154;13.812;2022-08-03T09:01:55;1.58;;;1.30;;
39266;SDS011;24967;51.154;13.812;2022-08-03T09:04:25;1.67;;;1.50;;
39266;SDS011;24967;51.154;13.812;2022-08-03T09:07:11;2.58;;;1.60;;
39266;SDS011;24967;51.154;13.812;2022-08-03T09:09:41;2.78;;;1.83;;
39266;SDS011;24967;51.154;13.812;2022-08-03T09:12:18;1.67;;;1.40;;
39266;SDS011;24967;51.154;13.812;2022-08-03T09:14:45;2.38;;;1.35;;
39266;SDS011;24967;51.154;13.812;2022-08-03T09:17:11;4.43;;;1.92;;
39266;SDS011;24967;51.154;13.812;2022-08-03T09:19:38;1.30;;;1.30;;
39266;SDS011;24967;51.154;13.812;2022-08-03T09:22:07;3.05;;;2.28;;
39266;SDS011;24967;51.154;13.812;2022-08-03T09:24:35;2.35;;;1.40;;
39266;SDS011;24967;51.154;13.812;2022-08-03T09:27:04;1.83;;;1.48;;
39266;SDS011;24967;51.154;13.812;2022-08-03T09:29:37;1.80;;;1.60;;
39266;SDS011;24967;51.154;13.812;2022-08-03T09:32:04;2.03;;;1.20;;
39266;SDS011;24967;51.154;13.812;2022-08-03T09:34:31;1.70;;;1.55;;
39266;SDS011;24967;51.154;13.812;2022-08-03T09:36:57;1.70;;;1.60;;
39266;SDS011;24967;51.154;13.812;2022-08-03T09:39:25;1.60;;;1.60;;
39266;SDS011;24967;51.154;13.812;2022-08-03T09:42:05;2.15;;;1.60;;
39266;SDS011;24967;51.154;13.812;2022-08-03T09:44:33;2.10;;;1.40;;
39266;SDS011;24967;51.154;13.812;2022-08-03T09:47:03;1.83;;;1.50;;
39266;SDS011;24967;51.154;13.812;2022-08-03T09:49:31;1.60;;;1.50;;
39266;SDS011;24967;51.154;13.812;2022-08-03T09:55:48;1.88;;;1.50;;
39266;SDS011;24967;51.154;13.812;2022-08-03T09:58:16;1.70;;;1.60;;
39266;SDS011;24967;51.154;13.812;2022-08-03T10:03:31;1.23;;;1.23;;
39266;SDS011;24967;51.154;13.812;2022-08-03T10:06:13;1.30;;;1.30;;
39266;SDS011;24967;51.154;13.812;2022-08-03T10:08:40;1.70;;;1.60;;
39266;SDS011;24967;51.154;13.812;2022-08-03T10:11:07;1.95;;;1.33;;
39266;SDS011;24967;51.154;13.812;2022-08-03T10:13:34;1.30;;;1.20;;
39266;SDS011;24967;51.154;13.812;2022-08-03T10:16:03;1.70;;;1.60;;
39266;SDS011;24967;51.154;13.812;2022-08-03T10:21:25;2.45;;;1.33;;
39266;SDS011;24967;51.154;13.812;2022-08-03T10:24:03;3.50;;;1.63;;
39266;SDS011;24967;51.154;13.812;2022-08-03T10:26:43;1.27;;;1.27;;
39266;SDS011;24967;51.154;13.812;2022-08-03T10:32:33;1.40;;;1.30;;
39266;SDS011;24967;51.154;13.812;2022-08-03T10:35:09;3.25;;;1.50;;
39266;SDS011;24967;51.154;13.812;2022-08-03T10:37:40;1.27;;;1.27;;
39266;SDS011;24967;51.154;13.812;2022-08-03T10:40:09;2.05;;;1.38;;
39266;SDS011;24967;51.154;13.812;2022-08-03T10:42:38;1.73;;;1.63;;
39266;SDS011;24967;51.154;13.812;2022-08-03T10:48:30;1.95;;;1.20;;
39266;SDS011;24967;51.154;13.812;2022-08-03T10:51:01;1.83;;;1.40;;
39266;SDS011;24967;51.154;13.812;2022-08-03T10:53:38;1.20;;;1.10;;
39266;SDS011;24967;51.154;13.812;2022-08-03T10:56:06;1.48;;;1.20;;
39266;SDS011;24967;51.154;13.812;2022-08-03T11:05:33;2.53;;;1.10;;
39266;SDS011;24967;51.154;13.812;2022-08-03T11:08:19;1.20;;;1.20;;
39266;SDS011;24967;51.154;13.812;2022-08-03T11:18:07;1.35;;;1.25;;
39266;SDS011;24967;51.154;13.812;2022-08-03T11:20:45;2.40;;;1.35;;
39266;SDS011;24967;51.154;13.812;2022-08-03T11:23:14;1.10;;;1.00;;
39266;SDS011;24967;51.154;13.812;2022-08-03T11:28:36;2.60;;;1.45;;
39266;SDS011;24967;51.154;13.812;2022-08-03T11:34:21;1.50;;;1.40;;
39266;SDS011;24967;51.154;13.812;2022-08-03T11:39:48;2.78;;;1.52;;
39266;SDS011;24967;51.154;13.812;2022-08-03T11:45:14;1.40;;;1.30;;
39266;SDS011;24967;51.154;13.812;2022-08-03T11:47:44;3.30;;;1.60;;
39266;SDS011;24967;51.154;13.812;2022-08-03T11:50:12;1.40;;;1.27;;
39266;SDS011;24967;51.154;13.812;2022-08-03T11:52:39;1.67;;;1.40;;
39266;SDS011;24967;51.154;13.812;2022-08-03T11:55:14;1.55;;;1.40;;
39266;SDS011;24967;51.154;13.812;2022-08-03T11:57:46;2.33;;;1.33;;
39266;SDS011;24967;51.154;13.812;2022-08-03T12:00:23;2.57;;;1.67;;
39266;SDS011;24967;51.154;13.812;2022-08-03T12:02:59;1.70;;;1.60;;
39266;SDS011;24967;51.154;13.812;2022-08-03T12:05:34;1.92;;;1.80;;
39266;SDS011;24967;51.154;13.812;2022-08-03T12:08:05;3.05;;;1.40;;
39266;SDS011;24967;51.154;13.812;2022-08-03T12:10:33;1.58;;;1.48;;
39266;SDS011;24967;51.154;13.812;2022-08-03T12:13:02;1.15;;;1.15;;
39266;SDS011;24967;51.154;13.812;2022-08-03T12:15:32;1.63;;;1.40;;
39266;SDS011;24967;51.154;13.812;2022-08-03T12:18:12;1.95;;;1.35;;
39266;SDS011;24967;51.154;13.812;2022-08-03T12:20:45;1.50;;;1.40;;
39266;SDS011;24967;51.154;13.812;2022-08-03T12:23:30;2.70;;;1.30;;
39266;SDS011;24967;51.154;13.812;2022-08-03T12:26:00;1.38;;;1.27;;
39266;SDS011;24967;51.154;13.812;2022-08-03T12:35:25;2.58;;;1.25;;
39266;SDS011;24967;51.154;13.812;2022-08-03T12:37:51;1.48;;;1.40;;
39266;SDS011;24967;51.154;13.812;2022-08-03T12:40:33;1.30;;;1.20;;
39266;SDS011;24967;51.154;13.812;2022-08-03T12:43:09;1.25;;;1.15;;
39266;SDS011;24967;51.154;13.812;2022-08-03T12:45:37;2.03;;;1.10;;
39266;SDS011;24967;51.154;13.812;2022-08-03T12:48:10;1.90;;;1.30;;
39266;SDS011;24967;51.154;13.812;2022-08-03T12:50:39;1.45;;;1.40;;
39266;SDS011;24967;51.154;13.812;2022-08-03T12:53:06;2.65;;;1.25;;
39266;SDS011;24967;51.154;13.812;2022-08-03T12:55:34;3.45;;;1.30;;
39266;SDS011;24967;51.154;13.812;2022-08-03T12:58:03;1.50;;;1.40;;
39266;SDS011;24967;51.154;13.812;2022-08-03T13:00:32;1.80;;;1.30;;
39266;SDS011;24967;51.154;13.812;2022-08-03T13:02:59;1.10;;;1.10;;
39266;SDS011;24967;51.154;13.812;2022-08-03T13:12:07;1.20;;;1.20;;
39266;SDS011;24967;51.154;13.812;2022-08-03T13:14:53;1.10;;;1.10;;
39266;SDS011;24967;51.154;13.812;2022-08-03T13:36:14;1.40;;;1.40;;
39266;SDS011;24967;51.154;13.812;2022-08-03T13:38:41;1.83;;;1.60;;
39266;SDS011;24967;51.154;13.812;2022-08-03T13:41:07;1.88;;;1.30;;
39266;SDS011;24967;51.154;13.812;2022-08-03T13:43:51;1.95;;;1.52;;
39266;SDS011;24967;51.154;13.812;2022-08-03T13:46:20;1.95;;;1.33;;
39266;SDS011;24967;51.154;13.812;2022-08-03T13:48:49;2.05;;;1.20;;
39266;SDS011;24967;51.154;13.812;2022-08-03T13:51:15;2.15;;;1.20;;
39266;SDS011;24967;51.154;13.812;2022-08-03T13:53:42;4.95;;;1.30;;
39266;SDS011;24967;51.154;13.812;2022-08-03T13:56:09;1.30;;;1.30;;
39266;SDS011;24967;51.154;13.812;2022-08-03T13:58:37;1.83;;;1.27;;
39266;SDS011;24967;51.154;13.812;2022-08-03T14:01:04;2.30;;;1.20;;
39266;SDS011;24967;51.154;13.812;2022-08-03T14:03:31;3.03;;;1.33;;
39266;SDS011;24967;51.154;13.812;2022-08-03T14:05:59;3.35;;;1.30;;
39266;SDS011;24967;51.154;13.812;2022-08-03T14:08:26;4.80;;;1.45;;
39266;SDS011;24967;51.154;13.812;2022-08-03T14:10:52;1.25;;;1.17;;
39266;SDS011;24967;51.154;13.812;2022-08-03T14:13:20;1.50;;;1.33;;
39266;SDS011;24967;51.154;13.812;2022-08-03T14:15:47;1.30;;;1.20;;
39266;SDS011;24967;51.154;13.812;2022-08-03T14:18:14;1.50;;;1.17;;
39266;SDS011;24967;51.154;13.812;2022-08-03T14:20:41;1.33;;;1.25;;
39266;SDS011;24967;51.154;13.812;2022-08-03T14:23:10;2.50;;;1.30;;
39266;SDS011;24967;51.154;13.812;2022-08-03T14:25:36;1.50;;;1.40;;
39266;SDS011;24967;51.154;13.812;2022-08-03T14:28:05;1.10;;;1.10;;
39266;SDS011;24967;51.154;13.812;2022-08-03T14:30:32;1.55;;;1.20;;
39266;SDS011;24967;51.154;13.812;2022-08-03T14:32:59;2.33;;;1.27;;
39266;SDS011;24967;51.154;13.812;2022-08-03T14:35:26;1.40;;;1.40;;
39266;SDS011;24967;51.154;13.812;2022-08-03T14:37:52;2.97;;;1.40;;
39266;SDS011;24967;51.154;13.812;2022-08-03T14:40:21;1.58;;;1.40;;
39266;SDS011;24967;51.154;13.812;2022-08-03T14:42:47;1.58;;;1.02;;
39266;SDS011;24967;51.154;13.812;2022-08-03T14:45:14;2.65;;;1.23;;
39266;SDS011;24967;51.154;13.812;2022-08-03T14:47:40;4.00;;;1.10;;
39266;SDS011;24967;51.154;13.812;2022-08-03T14:50:08;1.40;;;1.30;;
39266;SDS011;24967;51.154;13.812;2022-08-03T14:52:34;2.75;;;1.20;;
39266;SDS011;24967;51.154;13.812;2022-08-03T14:55:01;1.45;;;1.25;;
39266;SDS011;24967;51.154;13.812;2022-08-03T14:57:29;3.67;;;1.17;;
39266;SDS011;24967;51.154;13.812;2022-08-03T14:59:56;2.15;;;1.20;;
39266;SDS011;24967;51.154;13.812;2022-08-03T15:02:23;2.00;;;1.20;;
39266;SDS011;24967;51.154;13.812;2022-08-03T15:04:49;2.40;;;1.27;;
39266;SDS011;24967;51.154;13.812;2022-08-03T15:07:16;1.35;;;1.35;;
39266;SDS011;24967;51.154;13.812;2022-08-03T15:09:44;2.05;;;1.20;;
39266;SDS011;24967;51.154;13.812;2022-08-03T15:12:11;1.20;;;1.20;;
39266;SDS011;24967;51.154;13.812;2022-08-03T15:14:39;1.95;;;1.17;;
39266;SDS011;24967;51.154;13.812;2022-08-03T15:17:06;1.63;;;1.00;;
39266;SDS011;24967;51.154;13.812;2022-08-03T15:22:55;1.55;;;1.30;;
39266;SDS011;24967;51.154;13.812;2022-08-03T15:25:22;1.08;;;1.08;;
39266;SDS011;24967;51.154;13.812;2022-08-03T15:27:49;1.08;;;1.08;;
39266;SDS011;24967;51.154;13.812;2022-08-03T15:30:17;2.90;;;1.23;;
39266;SDS011;24967;51.154;13.812;2022-08-03T15:32:44;1.20;;;1.20;;
39266;SDS011;24967;51.154;13.812;2022-08-03T15:35:11;1.40;;;1.30;;
39266;SDS011;24967;51.154;13.812;2022-08-03T15:37:38;1.85;;;1.23;;
39266;SDS011;24967;51.154;13.812;2022-08-03T15:40:05;2.65;;;1.05;;
39266;SDS011;24967;51.154;13.812;2022-08-03T15:42:32;3.70;;;1.30;;
39266;SDS011;24967;51.154;13.812;2022-08-03T15:44:59;5.10;;;1.25;;
39266;SDS011;24967;51.154;13.812;2022-08-03T15:47:27;1.60;;;1.10;;
39266;SDS011;24967;51.154;13.812;2022-08-03T15:49:54;2.38;;;1.45;;
39266;SDS011;24967;51.154;13.812;2022-08-03T15:52:21;1.80;;;1.27;;
39266;SDS011;24967;51.154;13.812;2022-08-03T15:54:47;3.15;;;1.20;;
39266;SDS011;24967;51.154;13.812;2022-08-03T15:57:14;1.45;;;1.35;;
39266;SDS011;24967;51.154;13.812;2022-08-03T15:59:41;3.13;;;1.20;;
39266;SDS011;24967;51.154;13.812;2022-08-03T16:02:07;1.40;;;1.30;;
39266;SDS011;24967;51.154;13.812;2022-08-03T16:04:36;1.10;;;1.10;;
39266;SDS011;24967;51.154;13.812;2022-08-03T16:07:03;1.85;;;1.13;;
39266;SDS011;24967;51.154;13.812;2022-08-03T16:09:29;4.35;;;1.20;;
39266;SDS011;24967;51.154;13.812;2022-08-03T16:12:09;1.30;;;1.20;;
39266;SDS011;24967;51.154;13.812;2022-08-03T16:14:36;1.10;;;1.10;;
39266;SDS011;24967;51.154;13.812;2022-08-03T16:17:03;5.90;;;1.10;;
39266;SDS011;24967;51.154;13.812;2022-08-03T16:19:30;1.30;;;1.20;;
39266;SDS011;24967;51.154;13.812;2022-08-03T16:21:58;1.90;;;1.10;;
39266;SDS011;24967;51.154;13.812;2022-08-03T16:24:24;1.63;;;1.15;;
39266;SDS011;24967;51.154;13.812;2022-08-03T16:26:51;1.50;;;1.40;;